createdAt,value
2023-03-07T00:04:05.147Z,4.09
2023-03-07T00:09:08.973Z,4.03
2023-03-07T00:14:12.679Z,3.94
2023-03-07T00:19:18.659Z,3.94
2023-03-07T00:24:22.434Z,3.93
2023-03-07T00:29:26.208Z,3.89
2023-03-07T00:34:31.290Z,3.81
2023-03-07T00:39:37.692Z,3.89
2023-03-07T00:44:41.403Z,3.92
2023-03-07T00:49:46.538Z,3.97
2023-03-07T00:54:50.242Z,3.92
2023-03-07T00:59:54.590Z,3.98
2023-03-07T01:04:59.824Z,4.00
2023-03-07T01:10:03.701Z,4.02
2023-03-07T01:15:08.756Z,4.04
2023-03-07T01:20:15.416Z,4.02
2023-03-07T01:25:19.364Z,4.03
2023-03-07T01:30:23.253Z,4.07
2023-03-07T01:35:29.185Z,4.12
2023-03-07T01:40:33.416Z,4.18
2023-03-07T01:46:17.553Z,4.07
2023-03-07T01:51:24.056Z,4.07
2023-03-07T01:56:28.916Z,4.14
2023-03-07T02:01:33.253Z,4.14
2023-03-07T02:06:41.205Z,4.21
2023-03-07T02:11:47.186Z,4.14
2023-03-07T02:16:50.952Z,4.15
2023-03-07T02:22:08.909Z,4.14
2023-03-07T02:27:15.406Z,4.13
2023-03-07T02:32:19.641Z,4.06
2023-03-07T02:37:27.555Z,4.16
2023-03-07T02:42:36.923Z,4.03
2023-03-07T02:47:42.332Z,4.01
2023-03-07T02:52:47.355Z,4.12
2023-03-07T02:57:53.732Z,4.10
2023-03-07T03:02:57.872Z,4.12
2023-03-07T03:08:01.643Z,4.05
2023-03-07T03:13:08.094Z,4.04
2023-03-07T03:18:12.105Z,3.96
2023-03-07T03:23:15.900Z,4.02
2023-03-07T03:28:21.870Z,4.03
2023-03-07T03:33:26.319Z,4.02
2023-03-07T03:38:29.968Z,3.98
2023-03-07T03:43:36.248Z,3.97
2023-03-07T03:48:40.860Z,3.88
2023-03-07T03:53:44.832Z,3.83
2023-03-07T03:58:51.507Z,3.85
2023-03-07T04:03:56.239Z,3.89
2023-03-07T04:09:00.175Z,3.80
2023-03-07T04:14:05.612Z,3.82
2023-03-07T04:19:12.881Z,3.80
2023-03-07T04:24:18.794Z,3.91
2023-03-07T04:29:25.245Z,3.97
2023-03-07T04:34:29.440Z,3.84
2023-03-07T04:39:33.204Z,3.91
2023-03-07T04:44:38.738Z,3.76
2023-03-07T04:49:42.743Z,3.90
2023-03-07T04:54:46.674Z,3.81
2023-03-07T04:59:52.816Z,3.89
2023-03-07T05:04:58.397Z,3.91
2023-03-07T05:10:02.211Z,3.91
2023-03-07T05:15:08.721Z,3.99
2023-03-07T05:20:13.166Z,3.93
2023-03-07T05:25:17.710Z,3.91
2023-03-07T05:30:22.927Z,3.90
2023-03-07T05:35:27.200Z,3.83
2023-03-07T05:40:31.585Z,3.69
2023-03-07T05:45:37.496Z,3.69
2023-03-07T05:50:42.068Z,3.62
2023-03-07T05:55:46.250Z,3.61
2023-03-07T06:00:52.532Z,3.61
2023-03-07T06:05:56.725Z,3.50
2023-03-07T06:11:01.099Z,3.54
2023-03-07T06:16:06.803Z,3.48
2023-03-07T06:21:15.976Z,3.39
2023-03-07T06:26:20.429Z,3.37
2023-03-07T06:31:26.214Z,3.25
2023-03-07T06:36:30.584Z,3.27
2023-03-07T06:41:34.881Z,3.31
2023-03-07T06:46:40.721Z,3.27
2023-03-07T06:51:45.925Z,3.32
2023-03-07T06:56:49.816Z,3.36
2023-03-07T07:01:55.649Z,3.38
2023-03-07T07:06:59.611Z,3.39
2023-03-07T07:12:05.287Z,3.36
2023-03-07T07:17:11.333Z,3.37
2023-03-07T07:22:18.024Z,3.45
2023-03-07T07:27:21.850Z,3.49
2023-03-07T07:32:27.319Z,3.36
2023-03-07T07:37:31.476Z,3.36
2023-03-07T07:42:35.297Z,3.28
2023-03-07T07:47:41.112Z,3.21
2023-03-07T07:52:45.005Z,3.25
2023-03-07T07:57:49.017Z,3.24
2023-03-07T08:02:54.186Z,3.24
2023-03-07T08:07:57.988Z,3.17
2023-03-07T08:13:01.681Z,3.11
2023-03-07T08:18:06.788Z,2.96
2023-03-07T08:23:10.553Z,3.02
2023-03-07T08:28:14.269Z,2.98
2023-03-07T08:33:19.340Z,2.84
2023-03-07T08:38:23.016Z,2.98
2023-03-07T08:43:26.677Z,3.06
2023-03-07T08:48:31.978Z,3.20
2023-03-07T08:53:35.738Z,3.21
2023-03-07T08:58:40.106Z,3.25
2023-03-07T09:03:45.235Z,3.28
2023-03-07T09:08:49.455Z,3.35
2023-03-07T09:13:53.434Z,3.42
2023-03-07T09:18:58.556Z,3.59
2023-03-07T09:24:02.284Z,3.64
2023-03-07T09:29:05.990Z,3.48
2023-03-07T09:34:11.097Z,3.35
2023-03-07T09:39:15.484Z,3.48
2023-03-07T09:44:34.110Z,3.38
2023-03-07T09:49:47.186Z,3.33
2023-03-07T09:54:56.864Z,3.20
2023-03-07T10:00:05.586Z,3.26
2023-03-07T10:05:28.457Z,3.33
2023-03-07T10:10:39.760Z,3.19
2023-03-07T10:15:46.687Z,3.41
2023-03-07T10:20:53.933Z,3.41
2023-03-07T10:26:04.654Z,3.53
2023-03-07T10:31:21.717Z,3.29
2023-03-07T10:36:37.235Z,3.50
2023-03-07T10:41:41.004Z,3.71
2023-03-07T10:46:55.426Z,3.37
2023-03-07T10:52:05.681Z,3.78
2023-03-07T10:57:11.230Z,3.83
2023-03-07T11:02:31.433Z,4.05
2023-03-07T11:07:37.465Z,4.09
2023-03-07T11:12:46.679Z,4.17
2023-03-07T11:17:50.758Z,4.16
2023-03-07T11:23:15.851Z,4.22
2023-03-07T11:28:31.276Z,4.24
2023-03-07T11:33:58.570Z,4.24
2023-03-07T11:39:08.325Z,4.01
2023-03-07T11:44:22.834Z,4.13
2023-03-07T11:49:40.285Z,4.27
2023-03-07T11:54:53.636Z,4.38
2023-03-07T12:00:15.812Z,4.22
2023-03-07T12:05:39.449Z,4.20
2023-03-07T12:10:55.718Z,4.50
2023-03-07T12:16:12.391Z,4.91
2023-03-07T12:21:28.857Z,4.82
2023-03-07T12:26:42.042Z,4.56
2023-03-07T12:31:50.328Z,4.65
2023-03-07T12:36:58.327Z,4.65
2023-03-07T12:42:11.948Z,4.66
2023-03-07T12:47:24.427Z,4.65
2023-03-07T12:52:43.357Z,4.57
2023-03-07T12:57:55.241Z,4.59
2023-03-07T13:03:02.361Z,4.48
2023-03-07T13:08:08.405Z,4.61
2023-03-07T13:13:45.693Z,4.74
2023-03-07T13:18:50.919Z,4.60
2023-03-07T13:24:34.909Z,4.69
2023-03-07T13:30:07.076Z,4.59
2023-03-07T13:35:12.333Z,4.44
2023-03-07T13:40:54.856Z,4.44
2023-03-07T13:45:59.329Z,4.39
2023-03-07T13:51:09.334Z,4.37
2023-03-07T13:56:25.108Z,4.53
2023-03-07T14:01:32.965Z,4.50
2023-03-07T14:06:42.395Z,4.71
2023-03-07T14:11:56.175Z,4.58
2023-03-07T14:17:15.420Z,4.58
2023-03-07T14:22:31.938Z,4.62
2023-03-07T14:27:51.200Z,4.59
2023-03-07T14:32:54.966Z,4.49
2023-03-07T14:38:00.145Z,4.52
2023-03-07T14:43:21.232Z,4.41
2023-03-07T14:49:02.261Z,4.24
2023-03-07T14:54:14.758Z,4.12
2023-03-07T14:59:28.053Z,4.09
2023-03-07T15:04:35.799Z,4.08
2023-03-07T15:09:40.992Z,4.06
2023-03-07T15:14:47.569Z,4.15
2023-03-07T15:19:56.365Z,4.12
2023-03-07T15:25:01.650Z,4.06
2023-03-07T15:30:19.644Z,4.13
2023-03-07T15:35:23.492Z,4.14
2023-03-07T15:40:31.340Z,4.04
2023-03-07T15:45:38.205Z,4.07
2023-03-07T15:50:41.928Z,3.94
2023-03-07T15:55:56.821Z,3.82
2023-03-07T16:01:09.020Z,3.56
2023-03-07T16:06:36.418Z,3.50
2023-03-07T16:11:42.878Z,3.37
2023-03-07T16:16:46.678Z,3.41
2023-03-07T16:21:50.426Z,3.32
2023-03-07T16:26:55.481Z,3.27
2023-03-07T16:32:01.274Z,3.19
2023-03-07T16:37:05.117Z,3.05
2023-03-07T16:42:17.060Z,3.06
2023-03-07T16:47:20.773Z,3.02
2023-03-07T16:52:25.786Z,2.86
2023-03-07T16:57:30.845Z,2.88
2023-03-07T17:02:34.741Z,2.83
2023-03-07T17:07:38.470Z,2.67
2023-03-07T17:12:44.466Z,2.55
2023-03-07T17:17:48.459Z,2.70
2023-03-07T17:22:53.596Z,2.72
2023-03-07T17:28:02.376Z,2.65
2023-03-07T17:33:06.146Z,2.55
2023-03-07T17:38:09.861Z,2.64
2023-03-07T17:43:15.170Z,2.41
2023-03-07T17:48:18.915Z,2.46
2023-03-07T17:53:22.697Z,2.54
2023-03-07T17:58:27.792Z,2.21
2023-03-07T18:03:31.501Z,2.26
2023-03-07T18:08:35.618Z,2.35
2023-03-07T18:13:42.167Z,2.17
2023-03-07T18:18:58.208Z,2.09
2023-03-07T18:24:03.481Z,1.80
2023-03-07T18:29:08.567Z,1.91
2023-03-07T18:34:12.312Z,1.94
2023-03-07T18:39:16.022Z,1.66
2023-03-07T18:44:21.132Z,1.61
2023-03-07T18:49:24.918Z,1.70
2023-03-07T18:54:28.714Z,1.86
2023-03-07T18:59:33.837Z,1.87
2023-03-07T19:04:37.782Z,1.86
2023-03-07T19:09:43.874Z,2.01
2023-03-07T19:14:49.750Z,2.04
2023-03-07T19:19:59.042Z,2.08
2023-03-07T19:25:03.782Z,2.03
2023-03-07T19:30:11.230Z,1.93
2023-03-07T19:35:14.989Z,1.99
2023-03-07T19:40:18.792Z,1.96
2023-03-07T19:45:23.908Z,1.89
2023-03-07T19:50:27.630Z,1.90
2023-03-07T19:55:31.609Z,1.87
2023-03-07T20:00:38.704Z,1.78
2023-03-07T20:05:43.316Z,1.74
2023-03-07T20:10:47.033Z,1.55
2023-03-07T20:15:53.088Z,1.60
2023-03-07T20:20:56.914Z,1.51
2023-03-07T20:26:05.825Z,1.60
2023-03-07T20:31:11.274Z,1.61
2023-03-07T20:36:18.263Z,1.61
2023-03-07T20:41:25.209Z,1.61
2023-03-07T20:46:31.526Z,1.65
2023-03-07T20:51:37.842Z,1.57
2023-03-07T20:56:42.168Z,1.54
2023-03-07T21:01:47.960Z,1.43
2023-03-07T21:06:52.229Z,1.41
2023-03-07T21:11:56.065Z,1.33
2023-03-07T21:17:02.604Z,1.21
2023-03-07T21:22:06.377Z,1.22
2023-03-07T21:27:10.325Z,1.10
2023-03-07T21:32:15.521Z,1.00
2023-03-07T21:37:20.585Z,1.01
2023-03-07T21:42:24.420Z,0.94
2023-03-07T21:47:29.530Z,0.87
2023-03-07T21:52:33.255Z,0.78
2023-03-07T21:57:37.241Z,0.72
2023-03-07T22:02:42.302Z,0.80
2023-03-07T22:07:46.092Z,0.69
2023-03-07T22:12:49.855Z,0.74
2023-03-07T22:17:55.042Z,0.74
2023-03-07T22:22:58.748Z,0.73
2023-03-07T22:28:02.574Z,0.67
2023-03-07T22:33:07.709Z,0.66
2023-03-07T22:38:11.806Z,0.52
2023-03-07T22:43:15.653Z,0.60
2023-03-07T22:48:20.718Z,0.55
2023-03-07T22:53:27.056Z,0.56
2023-03-07T22:58:30.951Z,0.51
2023-03-07T23:03:36.064Z,0.46
2023-03-07T23:08:39.839Z,0.49
2023-03-07T23:13:44.187Z,0.49
2023-03-07T23:18:50.751Z,0.42
2023-03-07T23:23:55.300Z,0.45
2023-03-07T23:28:59.843Z,0.43
2023-03-07T23:34:07.799Z,0.43
2023-03-07T23:39:11.664Z,0.46
2023-03-07T23:44:15.320Z,0.38
2023-03-07T23:49:20.996Z,0.44
2023-03-07T23:54:24.844Z,0.47
2023-03-07T23:59:28.641Z,0.49
